createdAt,value
2018-03-24T00:00:39.384Z,4.9
2018-03-24T00:03:39.420Z,4.5
2018-03-24T00:06:39.372Z,4.4
2018-03-24T00:09:39.395Z,4.7
2018-03-24T00:12:39.398Z,4.9
2018-03-24T00:15:39.412Z,4.4
2018-03-24T00:18:39.424Z,4.9
2018-03-24T00:21:39.398Z,4.7
2018-03-24T00:24:39.457Z,4.4
2018-03-24T00:27:39.399Z,4.4
2018-03-24T00:30:39.390Z,4.6
2018-03-24T00:33:39.410Z,4.3
2018-03-24T00:36:39.378Z,4.7
2018-03-24T00:39:39.409Z,4.3
2018-03-24T00:42:39.377Z,4.6
2018-03-24T00:45:39.369Z,4.4
2018-03-24T00:48:39.377Z,4.5
2018-03-24T00:51:39.429Z,4.3
2018-03-24T00:54:39.376Z,4.3
2018-03-24T00:57:39.399Z,4.4
2018-03-24T01:00:39.418Z,4.3
2018-03-24T01:03:39.443Z,4.4
2018-03-24T01:06:39.406Z,4.3
2018-03-24T01:09:39.383Z,4.6
2018-03-24T01:12:39.376Z,4.4
2018-03-24T01:15:39.408Z,4.5
2018-03-24T01:18:39.377Z,4.8
2018-03-24T01:21:39.388Z,4.5
2018-03-24T01:24:39.351Z,4.5
2018-03-24T01:27:39.400Z,4.6
2018-03-24T01:30:39.411Z,4.4
2018-03-24T01:33:39.428Z,4.7
2018-03-24T01:36:39.432Z,4.5
2018-03-24T01:39:39.379Z,4.5
2018-03-24T01:42:39.373Z,4.3
2018-03-24T01:45:39.351Z,4.8
2018-03-24T01:48:39.366Z,4.6
2018-03-24T01:51:39.369Z,4.5
2018-03-24T01:54:39.363Z,4.3
2018-03-24T01:57:39.376Z,4.4
2018-03-24T02:00:39.396Z,4.6
2018-03-24T02:03:39.348Z,4.6
2018-03-24T02:06:39.381Z,4.5
2018-03-24T02:09:39.358Z,4.6
2018-03-24T02:12:39.365Z,4.3
2018-03-24T02:15:39.403Z,4.8
2018-03-24T02:18:39.384Z,4.3
2018-03-24T02:21:39.390Z,4.9
2018-03-24T02:24:39.345Z,4.5
2018-03-24T02:27:39.471Z,4.2
2018-03-24T02:30:39.358Z,4.5
2018-03-24T02:33:39.415Z,4.4
2018-03-24T02:36:39.364Z,4.4
2018-03-24T02:39:39.383Z,4.3
2018-03-24T02:42:39.370Z,4.3
2018-03-24T02:45:39.425Z,4.3
2018-03-24T02:48:39.390Z,4.2
2018-03-24T02:51:39.363Z,4.1
2018-03-24T02:54:39.378Z,4.3
2018-03-24T02:57:39.373Z,4.4
2018-03-24T03:00:39.363Z,4.2
2018-03-24T03:03:39.367Z,4.1
2018-03-24T03:06:39.376Z,4.6
2018-03-24T03:09:39.368Z,4.4
2018-03-24T03:12:39.405Z,4.1
2018-03-24T03:15:39.367Z,4.3
2018-03-24T03:18:39.346Z,4.4
2018-03-24T03:21:39.653Z,4.3
2018-03-24T03:24:39.361Z,4.6
2018-03-24T03:27:39.357Z,4.3
2018-03-24T03:30:39.356Z,4.2
2018-03-24T03:33:39.345Z,4.1
2018-03-24T03:36:39.344Z,4.2
2018-03-24T03:39:39.875Z,4.2
2018-03-24T03:42:39.357Z,4.3
2018-03-24T03:45:39.344Z,4.2
2018-03-24T03:48:39.318Z,4.3
2018-03-24T03:51:39.577Z,4.4
2018-03-24T03:54:39.319Z,4.3
2018-03-24T03:57:39.340Z,4.1
2018-03-24T04:00:39.335Z,4.9
2018-03-24T04:03:39.320Z,4.2
2018-03-24T04:06:39.355Z,4.4
2018-03-24T04:09:39.304Z,4.1
2018-03-24T04:12:39.317Z,4.3
2018-03-24T04:15:39.340Z,4.3
2018-03-24T04:18:39.322Z,4
2018-03-24T04:21:39.329Z,4.2
2018-03-24T04:24:39.287Z,4.3
2018-03-24T04:27:39.327Z,4.5
2018-03-24T04:30:39.373Z,4.3
2018-03-24T04:33:39.339Z,4.1
2018-03-24T04:36:39.339Z,4.2
2018-03-24T04:39:39.347Z,4.3
2018-03-24T04:42:39.324Z,4.1
2018-03-24T04:45:39.357Z,4.3
2018-03-24T04:48:39.309Z,4.2
2018-03-24T04:51:39.298Z,4.2
2018-03-24T04:54:39.315Z,4.2
2018-03-24T04:57:39.295Z,4.2
2018-03-24T05:00:39.285Z,4.2
2018-03-24T05:03:39.358Z,3.9
2018-03-24T05:06:39.304Z,3.7
2018-03-24T05:09:39.746Z,3.8
2018-03-24T05:12:39.387Z,3.9
2018-03-24T05:15:39.318Z,3.6
2018-03-24T05:18:39.311Z,3.6
2018-03-24T05:21:39.317Z,3.5
2018-03-24T05:24:39.333Z,3.5
2018-03-24T05:27:39.284Z,3.5
2018-03-24T05:30:39.338Z,3.6
2018-03-24T05:33:39.316Z,3.5
2018-03-24T05:36:39.321Z,3.4
2018-03-24T05:39:39.324Z,3.5
2018-03-24T05:42:39.305Z,3.5
2018-03-24T05:45:39.324Z,3.3
2018-03-24T05:48:40.173Z,3.2
2018-03-24T05:51:39.306Z,3.4
2018-03-24T05:54:39.307Z,3.3
2018-03-24T05:57:39.617Z,3.4
2018-03-24T06:00:39.317Z,3
2018-03-24T06:03:39.283Z,3.3
2018-03-24T06:06:39.308Z,3.1
2018-03-24T06:09:39.311Z,3.2
2018-03-24T06:12:39.315Z,3.1
2018-03-24T06:15:39.348Z,3.8
2018-03-24T06:18:39.300Z,3.1
2018-03-24T06:21:39.270Z,3.2
2018-03-24T06:24:39.299Z,3.4
2018-03-24T06:27:39.276Z,2.9
2018-03-24T06:30:39.276Z,3.3
2018-03-24T06:33:39.291Z,2.9
2018-03-24T06:36:39.316Z,3
2018-03-24T06:39:39.350Z,2.8
2018-03-24T06:42:39.269Z,3
2018-03-24T06:45:39.248Z,2.9
2018-03-24T06:48:39.258Z,3.1
2018-03-24T06:51:39.258Z,3
2018-03-24T06:54:39.266Z,3
2018-03-24T06:57:39.269Z,2.7
2018-03-24T07:00:39.439Z,3
2018-03-24T07:03:39.259Z,2.7
2018-03-24T07:06:39.266Z,2.9
2018-03-24T07:09:39.335Z,3.1
2018-03-24T07:12:39.276Z,2.7
2018-03-24T07:15:39.258Z,2.8
2018-03-24T07:18:39.255Z,2.9
2018-03-24T07:21:39.255Z,2.7
2018-03-24T07:24:39.253Z,2.7
2018-03-24T07:27:39.276Z,2.7
2018-03-24T07:30:39.248Z,2.9
2018-03-24T07:33:39.234Z,2.5
2018-03-24T07:36:39.247Z,3
2018-03-24T07:39:39.275Z,2.9
2018-03-24T07:42:39.280Z,2.9
2018-03-24T07:45:39.266Z,2.6
2018-03-24T07:48:39.272Z,2.9
2018-03-24T07:51:39.251Z,2.6
2018-03-24T07:54:39.277Z,2.7
2018-03-24T07:57:39.206Z,2.6
2018-03-24T08:00:39.269Z,2.8
2018-03-24T08:03:39.240Z,2.6
2018-03-24T08:06:39.247Z,2.8
2018-03-24T08:09:39.742Z,2.7
2018-03-24T08:12:39.296Z,2.6
2018-03-24T08:15:39.298Z,2.6
2018-03-24T08:18:39.253Z,2.7
2018-03-24T08:21:39.258Z,2.5
2018-03-24T08:24:39.242Z,2.5
2018-03-24T08:27:39.270Z,2.6
2018-03-24T08:30:39.334Z,2.5
2018-03-24T08:33:39.208Z,2.8
2018-03-24T08:36:39.237Z,2.7
2018-03-24T08:39:39.213Z,2.5
2018-03-24T08:42:39.255Z,2.5
2018-03-24T08:45:39.235Z,2.6
2018-03-24T08:48:39.242Z,2.5
2018-03-24T08:51:39.296Z,2.6
2018-03-24T08:54:39.227Z,2.6
2018-03-24T08:57:39.229Z,2.4
2018-03-24T09:00:39.273Z,2.5
2018-03-24T09:03:39.234Z,2.6
2018-03-24T09:06:39.229Z,2.5
2018-03-24T09:09:39.201Z,2.5
2018-03-24T09:12:39.224Z,4.8
2018-03-24T09:15:39.208Z,2.5
2018-03-24T09:18:39.231Z,5.4
2018-03-24T09:21:39.252Z,3.4
2018-03-24T09:24:39.247Z,4.9
2018-03-24T09:27:39.215Z,3
2018-03-24T09:30:39.209Z,2.8
2018-03-24T09:33:39.222Z,3.2
2018-03-24T09:36:39.188Z,4.3
2018-03-24T09:39:39.248Z,3.1
2018-03-24T09:42:39.218Z,6.6
2018-03-24T09:45:39.208Z,5.2
2018-03-24T09:48:39.185Z,3.1
2018-03-24T09:51:39.283Z,2.4
2018-03-24T09:54:39.208Z,2.4
2018-03-24T09:57:39.215Z,4
2018-03-24T10:00:39.198Z,2.7
2018-03-24T10:03:39.196Z,2.2
2018-03-24T10:06:39.206Z,3
2018-03-24T10:09:39.162Z,3.6
2018-03-24T10:12:39.182Z,2.4
2018-03-24T10:15:39.194Z,2.6
2018-03-24T10:18:39.228Z,2.2
2018-03-24T10:21:39.209Z,2.5
2018-03-24T10:24:39.190Z,3.4
2018-03-24T10:27:39.245Z,2.3
2018-03-24T10:30:39.255Z,2.6
2018-03-24T10:33:39.181Z,3.5
2018-03-24T10:36:39.175Z,2.2
2018-03-24T10:39:39.209Z,2.5
2018-03-24T10:42:39.187Z,2.3
2018-03-24T10:45:39.175Z,2.4
2018-03-24T10:48:39.186Z,2.9
2018-03-24T10:51:39.223Z,2.3
2018-03-24T10:54:39.188Z,2.8
2018-03-24T10:57:39.219Z,3.3
2018-03-24T11:00:39.211Z,3.9
2018-03-24T11:03:39.196Z,3.2
2018-03-24T11:06:39.152Z,3.5
2018-03-24T11:09:39.180Z,2.3
2018-03-24T11:12:39.264Z,3.8
2018-03-24T11:15:39.187Z,2.4
2018-03-24T11:18:39.211Z,6.2
2018-03-24T11:21:39.189Z,3.8
2018-03-24T11:24:39.212Z,2.5
2018-03-24T11:27:39.228Z,4.4
2018-03-24T11:30:39.178Z,3.4
2018-03-24T11:33:39.186Z,2.4
2018-03-24T11:36:39.182Z,2.3
2018-03-24T11:39:39.178Z,3.2
2018-03-24T11:42:39.212Z,3.6
2018-03-24T11:45:39.185Z,2.4
2018-03-24T11:48:39.191Z,3.8
2018-03-24T11:51:39.217Z,2.7
2018-03-24T11:54:39.177Z,3.9
2018-03-24T11:57:39.174Z,2.4
2018-03-24T12:00:39.157Z,2.4
2018-03-24T12:03:39.257Z,2.2
2018-03-24T12:06:39.147Z,2.4
2018-03-24T12:09:39.158Z,1.9
2018-03-24T12:12:39.179Z,2.1
2018-03-24T12:15:39.213Z,2.5
2018-03-24T12:18:39.208Z,2.7
2018-03-24T12:21:39.294Z,2.2
2018-03-24T12:24:39.192Z,1.9
2018-03-24T12:27:39.138Z,2.4
2018-03-24T12:30:39.171Z,1.9
2018-03-24T12:33:39.151Z,2.7
2018-03-24T12:36:39.233Z,2.1
2018-03-24T12:39:39.149Z,1.9
2018-03-24T12:42:39.247Z,1.9
2018-03-24T12:45:39.172Z,2
2018-03-24T12:48:39.238Z,2.5
2018-03-24T12:51:39.222Z,2
2018-03-24T12:54:39.144Z,2.2
2018-03-24T12:57:39.149Z,1.8
2018-03-24T13:00:39.191Z,2.1
2018-03-24T13:03:39.168Z,2
2018-03-24T13:06:39.270Z,1.9
2018-03-24T13:09:39.154Z,2.2
2018-03-24T13:12:39.164Z,1.8
2018-03-24T13:15:39.171Z,1.9
2018-03-24T13:18:39.159Z,1.9
2018-03-24T13:21:39.147Z,2.4
2018-03-24T13:24:39.165Z,1.9
2018-03-24T13:27:39.677Z,1.7
2018-03-24T13:30:39.147Z,4.7
2018-03-24T13:33:39.145Z,2.9
2018-03-24T13:36:39.117Z,4.2
2018-03-24T13:39:39.120Z,4.2
2018-03-24T13:42:39.136Z,7.9
2018-03-24T13:45:39.211Z,5.7
2018-03-24T13:48:39.145Z,7.7
2018-03-24T13:51:39.115Z,4.5
2018-03-24T13:54:39.115Z,4.8
2018-03-24T13:57:39.275Z,5.6
2018-03-24T14:00:39.125Z,4.3
2018-03-24T14:03:39.529Z,3.3
2018-03-24T14:06:39.169Z,5.4
2018-03-24T14:09:39.161Z,4.9
2018-03-24T14:12:39.124Z,3.4
2018-03-24T14:15:39.124Z,5.7
2018-03-24T14:18:39.128Z,2.9
2018-03-24T14:21:39.233Z,3.9
2018-03-24T14:24:39.130Z,5.4
2018-03-24T14:27:39.220Z,3.1
2018-03-24T14:30:39.135Z,3.4
2018-03-24T14:33:39.321Z,2.5
2018-03-24T14:36:39.092Z,4.9
2018-03-24T14:39:39.145Z,5
2018-03-24T14:42:39.101Z,3
2018-03-24T14:45:39.112Z,2.7
2018-03-24T14:48:39.116Z,3.1
2018-03-24T14:51:39.112Z,4.1
2018-03-24T14:54:39.245Z,3.4
2018-03-24T14:57:39.110Z,5.9
2018-03-24T15:00:39.214Z,3.4
2018-03-24T15:03:42.808Z,2.8
2018-03-24T15:06:39.149Z,3.7
2018-03-24T15:09:39.095Z,4.6
2018-03-24T15:12:39.098Z,5.3
2018-03-24T15:15:39.064Z,5.5
2018-03-24T15:18:39.217Z,8.2
2018-03-24T15:21:39.107Z,4.5
2018-03-24T15:24:39.112Z,3.2
2018-03-24T15:27:39.113Z,3.1
2018-03-24T15:30:39.176Z,3.2
2018-03-24T15:33:39.201Z,5.7
2018-03-24T15:36:39.218Z,5.2
2018-03-24T15:39:39.164Z,5.6
2018-03-24T15:42:39.127Z,7.2
2018-03-24T15:45:39.496Z,3.8
2018-03-24T15:48:39.218Z,2.8
2018-03-24T15:51:39.159Z,5.2
2018-03-24T15:54:39.152Z,5.6
2018-03-24T15:57:39.105Z,2.4
2018-03-24T16:00:39.155Z,3.7
2018-03-24T16:03:39.103Z,3.2
2018-03-24T16:06:39.115Z,2.1
2018-03-24T16:09:39.108Z,4.2
2018-03-24T16:12:39.145Z,3.9
2018-03-24T16:15:39.079Z,3.9
2018-03-24T16:18:39.099Z,2.8
2018-03-24T16:21:39.109Z,3
2018-03-24T16:24:39.149Z,3.5
2018-03-24T16:27:39.637Z,3
2018-03-24T16:30:39.091Z,4.5
2018-03-24T16:33:39.110Z,3.7
2018-03-24T16:36:39.085Z,3.2
2018-03-24T16:39:39.105Z,2.4
2018-03-24T16:42:39.103Z,2
2018-03-24T16:45:39.158Z,2.9
2018-03-24T16:48:39.099Z,3
2018-03-24T16:51:39.190Z,2.8
2018-03-24T16:54:39.132Z,2.5
2018-03-24T16:57:39.372Z,4
2018-03-24T17:00:39.092Z,4.6
2018-03-24T17:03:39.140Z,10.2
2018-03-24T17:06:39.168Z,9.3
2018-03-24T17:09:39.092Z,8.4
2018-03-24T17:12:39.131Z,6.4
2018-03-24T17:15:39.177Z,9
2018-03-24T17:18:39.167Z,8.7
2018-03-24T17:21:39.494Z,7.4
2018-03-24T17:24:39.103Z,10.3
2018-03-24T17:27:39.369Z,9.2
2018-03-24T17:30:39.077Z,7
2018-03-24T17:33:39.127Z,4.3
2018-03-24T17:36:39.192Z,5.1
2018-03-24T17:39:39.061Z,6.2
2018-03-24T17:42:39.149Z,6.1
2018-03-24T17:45:39.082Z,5.1
2018-03-24T17:48:39.660Z,4.9
2018-03-24T17:51:39.085Z,5.7
2018-03-24T17:54:39.125Z,5
2018-03-24T18:12:42.477Z,5.5
2018-03-24T18:15:42.471Z,5.3
2018-03-24T18:18:42.571Z,3.7
2018-03-24T18:21:42.514Z,4.1
2018-03-24T18:24:42.534Z,2.9
2018-03-24T18:27:42.469Z,5.3
2018-03-24T18:30:42.713Z,4.4
2018-03-24T18:33:42.457Z,4.1
2018-03-24T18:36:42.457Z,3.6
2018-03-24T18:39:42.514Z,4.7
2018-03-24T18:42:42.491Z,2.9
2018-03-24T18:45:42.529Z,3.1
2018-03-24T18:48:42.504Z,2.9
2018-03-24T18:51:42.528Z,3.3
2018-03-24T18:54:44.240Z,3.1
2018-03-24T18:57:42.501Z,3.2
2018-03-24T19:00:42.474Z,2.4
2018-03-24T19:03:42.464Z,3.5
2018-03-24T19:06:42.501Z,3.1
2018-03-24T19:09:42.543Z,2.7
2018-03-24T19:12:42.482Z,3.5
2018-03-24T19:15:42.440Z,3.5
2018-03-24T19:18:42.467Z,3.6
2018-03-24T19:21:42.451Z,3
2018-03-24T19:24:42.537Z,3
2018-03-24T19:27:42.451Z,3.1
2018-03-24T19:30:42.555Z,3.9
2018-03-24T19:33:42.462Z,4.8
2018-03-24T19:36:42.524Z,3.2
2018-03-24T19:39:42.473Z,4
2018-03-24T19:42:42.457Z,2.7
2018-03-24T19:45:42.443Z,3.1
2018-03-24T19:48:42.446Z,3.2
2018-03-24T19:51:42.573Z,5.6
2018-03-24T19:54:42.516Z,5.1
2018-03-24T19:57:42.675Z,2.9
2018-03-24T20:00:42.447Z,5
2018-03-24T20:03:42.445Z,2.9
2018-03-24T20:06:42.451Z,3.2
2018-03-24T20:09:42.449Z,2.9
2018-03-24T20:12:42.435Z,5.4
2018-03-24T20:15:42.481Z,3.2
2018-03-24T20:18:42.443Z,3.2
2018-03-24T20:21:42.495Z,7
2018-03-24T20:24:42.442Z,4.7
2018-03-24T20:27:42.450Z,7.5
2018-03-24T20:30:42.439Z,3.8
2018-03-24T20:33:43.076Z,4.4
2018-03-24T20:36:42.541Z,5.1
2018-03-24T20:39:42.418Z,3.7
2018-03-24T20:42:42.571Z,4.9
2018-03-24T20:45:42.456Z,5.1
2018-03-24T20:48:42.448Z,4.5
2018-03-24T20:51:42.491Z,5.1
2018-03-24T20:54:42.435Z,4.6
2018-03-24T20:57:42.419Z,7.6
2018-03-24T21:00:42.443Z,4.5
2018-03-24T21:03:42.425Z,4.9
2018-03-24T21:06:42.459Z,4.5
2018-03-24T21:09:42.444Z,3.9
2018-03-24T21:12:42.436Z,4.8
2018-03-24T21:15:42.414Z,3.7
2018-03-24T21:18:42.438Z,3.9
2018-03-24T21:21:42.499Z,4.1
2018-03-24T21:24:42.467Z,4.7
2018-03-24T21:27:42.433Z,3.6
2018-03-24T21:30:42.480Z,4.1
2018-03-24T21:33:42.492Z,4
2018-03-24T21:36:42.439Z,3.7
2018-03-24T21:39:42.387Z,4.4
2018-03-24T21:42:42.462Z,4.1
2018-03-24T21:45:42.454Z,4.7
2018-03-24T21:48:42.429Z,3.9
2018-03-24T21:51:42.549Z,4
2018-03-24T21:54:42.439Z,3.8
2018-03-24T21:57:42.464Z,3.5
2018-03-24T22:00:42.485Z,3.6
2018-03-24T22:03:42.425Z,4
2018-03-24T22:06:42.431Z,3.9
2018-03-24T22:09:42.420Z,3.9
2018-03-24T22:12:42.431Z,3.9
2018-03-24T22:15:42.420Z,4.1
2018-03-24T22:18:42.443Z,3.7
2018-03-24T22:21:42.440Z,3.7
2018-03-24T22:24:42.401Z,3.6
2018-03-24T22:27:42.406Z,3.8
2018-03-24T22:30:42.518Z,3.9
2018-03-24T22:33:42.378Z,3.8
2018-03-24T22:36:42.388Z,3.7
2018-03-24T22:39:43.274Z,4.2
2018-03-24T22:42:42.415Z,3.5
2018-03-24T22:45:42.387Z,3.7
2018-03-24T22:48:42.495Z,3.8
2018-03-24T22:51:42.385Z,3.7
2018-03-24T22:54:42.396Z,4.9
2018-03-24T22:57:42.414Z,3.9
2018-03-24T23:00:42.429Z,3.8
2018-03-24T23:03:42.428Z,3.6
2018-03-24T23:06:42.391Z,3.7
2018-03-24T23:09:42.400Z,3.9
2018-03-24T23:12:42.433Z,3.8
2018-03-24T23:15:42.419Z,3.8
2018-03-24T23:18:42.375Z,3.8
2018-03-24T23:21:42.400Z,4
2018-03-24T23:24:42.394Z,3.8
2018-03-24T23:27:42.412Z,4.1
2018-03-24T23:30:42.455Z,4.1
2018-03-24T23:33:42.420Z,4
2018-03-24T23:36:42.372Z,4.1
2018-03-24T23:39:42.385Z,4
2018-03-24T23:42:42.398Z,4.1
2018-03-24T23:45:42.365Z,3.8
2018-03-24T23:48:42.414Z,3.9
2018-03-24T23:51:42.355Z,4.2
2018-03-24T23:54:42.484Z,4
2018-03-24T23:57:42.407Z,3.9
